Time;durP1;ratioP1;P1;durP2;ratioP2;P2;SDS_P1;SDS_P2;PMS_P1;PMS_P2;Temp;Humidity;BMP_temperature;BMP_pressure;BME280_temperature;BME280_humidity;BME280_pressure;Samples;Min_cycle;Max_cycle;Signal;HPM_P1;HPM_P2
2022/12/01 00:00:09;;;;;;;47.00;28.30;;;;;;;4.52;94.67;101906.75;103339;1293;62121;-75
2022/12/01 00:02:35;;;;;;;45.90;29.20;;;;;;;4.52;94.94;101915.38;104618;1294;62087;-75
2022/12/01 00:05:02;;;;;;;46.40;27.90;;;;;;;4.52;94.99;101911.36;103984;1304;74258;-75
2022/12/01 00:07:28;;;;;;;46.80;28.60;;;;;;;4.51;94.97;101910.71;103679;1300;69714;-75
2022/12/01 00:12:42;;;;;;;49.10;30.10;;;;;;;4.47;95.03;101907.94;103894;1302;63039;-74
2022/12/01 00:15:10;;;;;;;44.10;28.50;;;;;;;4.46;95.00;101907.71;103523;1303;62019;-75
2022/12/01 00:17:37;;;;;;;46.10;28.90;;;;;;;4.43;95.10;101904.55;104298;1298;75701;-75
2022/12/01 00:20:05;;;;;;;47.90;29.70;;;;;;;4.41;94.91;101907.33;104119;1294;70728;-75
2022/12/01 00:22:32;;;;;;;51.20;29.20;;;;;;;4.40;95.07;101910.54;103961;1298;71515;-75
2022/12/01 00:24:58;;;;;;;49.70;29.20;;;;;;;4.41;95.32;101913.32;103619;1299;63303;-75
2022/12/01 00:27:25;;;;;;;48.60;29.30;;;;;;;4.40;95.26;101913.14;104395;1301;59882;-75
2022/12/01 00:29:51;;;;;;;50.20;30.00;;;;;;;4.41;95.55;101912.40;103596;1294;62139;-75
2022/12/01 00:32:17;;;;;;;47.10;27.80;;;;;;;4.42;95.53;101913.05;103871;1294;62101;-75
2022/12/01 00:34:44;;;;;;;50.20;30.50;;;;;;;4.39;95.27;101911.65;103735;1302;62123;-75
2022/12/01 00:37:10;;;;;;;49.00;30.40;;;;;;;4.37;95.28;101906.70;104201;1295;62076;-75
2022/12/01 00:39:37;;;;;;;50.80;30.20;;;;;;;4.37;95.49;101905.84;103881;1301;62095;-76
2022/12/01 00:42:03;;;;;;;48.60;30.10;;;;;;;4.36;95.44;101909.46;104161;1295;62198;-75
2022/12/01 00:44:38;;;;;;;48.40;29.50;;;;;;;4.34;95.32;101910.95;104282;1294;69818;-75
2022/12/01 00:47:05;;;;;;;51.10;30.90;;;;;;;4.33;95.30;101910.89;103558;1300;73280;-75
2022/12/01 00:49:31;;;;;;;47.70;30.40;;;;;;;4.33;95.48;101913.48;103911;1295;59865;-74
2022/12/01 00:51:58;;;;;;;50.40;32.00;;;;;;;4.33;95.44;101914.02;103855;1303;62132;-76
2022/12/01 00:54:24;;;;;;;52.40;32.20;;;;;;;4.34;95.64;101915.18;104458;1296;60430;-75
2022/12/01 00:56:51;;;;;;;51.90;31.00;;;;;;;4.36;95.76;101915.77;103514;1295;60563;-74
2022/12/01 00:59:17;;;;;;;50.30;30.70;;;;;;;4.36;95.63;101914.85;103787;1296;62200;-73
2022/12/01 01:01:44;;;;;;;54.00;31.60;;;;;;;4.37;95.56;101916.91;104113;1301;62128;-74
2022/12/01 01:04:10;;;;;;;49.20;30.50;;;;;;;4.37;95.55;101917.39;104321;1297;62024;-74
2022/12/01 01:06:37;;;;;;;50.10;31.10;;;;;;;4.37;95.49;101918.63;103587;1300;73902;-74
2022/12/01 01:09:04;;;;;;;51.60;30.90;;;;;;;4.36;95.44;101918.55;103839;1294;61981;-75
2022/12/01 01:11:30;;;;;;;52.00;30.90;;;;;;;4.35;95.46;101915.98;103617;1294;61857;-75
2022/12/01 01:13:58;;;;;;;51.30;30.90;;;;;;;4.36;95.58;101921.85;104394;1301;62051;-75
2022/12/01 01:16:25;;;;;;;53.10;31.00;;;;;;;4.38;95.47;101921.42;104238;1295;62009;-75
2022/12/01 01:18:52;;;;;;;49.90;30.80;;;;;;;4.38;95.56;101923.32;103743;1295;75508;-75
2022/12/01 01:21:20;;;;;;;56.10;32.20;;;;;;;4.38;95.39;101922.23;104534;1294;71961;-74
2022/12/01 01:23:48;;;;;;;50.50;31.60;;;;;;;4.35;95.18;101925.23;104242;1292;72478;-75
2022/12/01 01:26:22;;;;;;;52.90;31.30;;;;;;;4.32;95.08;101927.56;103510;1304;62190;-75
2022/12/01 01:28:50;;;;;;;56.20;31.80;;;;;;;4.31;95.18;101927.14;103821;1303;60753;-75
2022/12/01 01:31:22;;;;;;;52.00;30.30;;;;;;;4.29;95.33;101928.25;103762;1304;75472;-75
2022/12/01 01:33:49;;;;;;;51.60;30.70;;;;;;;4.28;95.20;101932.02;104679;1293;70220;-75
2022/12/01 01:36:17;;;;;;;52.20;31.90;;;;;;;4.24;95.17;101932.30;103493;1295;72451;-75
2022/12/01 01:38:43;;;;;;;54.30;31.10;;;;;;;4.22;95.15;101931.19;104378;1303;62161;-75
2022/12/01 01:41:10;;;;;;;52.10;31.90;;;;;;;4.20;95.27;101930.11;103877;1301;62122;-75
2022/12/01 01:43:42;;;;;;;54.40;32.10;;;;;;;4.20;95.40;101926.98;104081;1301;74029;-75
2022/12/01 01:46:18;;;;;;;52.90;31.60;;;;;;;4.22;95.67;101930.17;103733;1295;69587;-75
2022/12/01 01:48:52;;;;;;;56.70;33.40;;;;;;;4.22;95.55;101932.80;104048;1301;72748;-75
2022/12/01 01:51:24;;;;;;;54.60;31.40;;;;;;;4.20;95.12;101934.66;103972;1302;61061;-75
2022/12/01 01:53:55;;;;;;;56.60;32.30;;;;;;;4.18;95.15;101936.44;104039;1294;62171;-75
2022/12/01 01:56:22;;;;;;;58.60;33.50;;;;;;;4.16;95.27;101934.42;104162;1292;74130;-75
2022/12/01 01:58:50;;;;;;;56.60;32.90;;;;;;;4.16;95.28;101935.65;104138;1297;69592;-75
2022/12/01 02:01:17;;;;;;;56.80;33.00;;;;;;;4.17;95.42;101938.02;103864;1301;71799;-75
2022/12/01 02:03:45;;;;;;;53.80;31.60;;;;;;;4.18;95.35;101933.41;103415;1297;62578;-75
2022/12/01 02:06:12;;;;;;;58.80;33.50;;;;;;;4.19;95.31;101935.67;103562;1294;62006;-76
2022/12/01 02:08:39;;;;;;;56.70;33.10;;;;;;;4.18;95.29;101933.38;103866;1301;73656;-75
2022/12/01 02:11:47;;;;;;;59.40;33.50;;;;;;;4.21;95.47;101936.36;103761;1295;62241;-75
2022/12/01 02:14:39;;;;;;;56.00;32.20;;;;;;;4.23;95.29;101937.98;104151;1291;71038;-75
2022/12/01 02:17:23;;;;;;;56.00;32.90;;;;;;;4.23;95.23;101935.52;103841;1300;61414;-75
2022/12/01 02:20:05;;;;;;;56.20;32.10;;;;;;;4.21;94.91;101939.48;104104;1286;60824;-75
2022/12/01 02:23:04;;;;;;;58.00;34.10;;;;;;;4.19;95.04;101939.13;103809;1294;75290;-75
2022/12/01 02:25:58;;;;;;;54.50;32.20;;;;;;;4.20;95.19;101940.80;103740;1294;70920;-75
2022/12/01 02:28:53;;;;;;;55.70;34.50;;;;;;;4.21;95.01;101941.29;104126;1287;71151;-75
2022/12/01 02:32:14;;;;;;;59.10;33.90;;;;;;;4.21;94.97;101946.19;104194;1301;62109;-75
2022/12/01 02:34:43;;;;;;;60.90;35.50;;;;;;;4.15;94.84;101942.20;103643;1305;62048;-75
2022/12/01 02:37:28;;;;;;;70.90;37.00;;;;;;;4.10;94.44;101940.26;104089;1300;73913;-75
2022/12/01 02:40:12;;;;;;;67.90;36.90;;;;;;;4.04;94.37;101941.86;103983;1298;70918;-75
2022/12/01 02:42:53;;;;;;;69.00;37.00;;;;;;;3.98;94.29;101946.59;104276;1294;71208;-75
2022/12/01 02:45:30;;;;;;;66.70;36.80;;;;;;;3.94;94.41;101946.86;105041;1293;62046;-75
2022/12/01 02:48:01;;;;;;;69.60;36.00;;;;;;;3.91;94.43;101947.09;104048;1296;62131;-75
2022/12/01 02:50:31;;;;;;;73.00;37.80;;;;;;;3.88;94.57;101943.13;104155;1295;73704;-75
2022/12/01 02:53:00;;;;;;;73.60;38.30;;;;;;;3.85;94.57;101945.38;104452;1294;69828;-75
2022/12/01 02:55:26;;;;;;;75.30;39.10;;;;;;;3.80;94.40;101951.80;104123;1293;72052;-77
2022/12/01 02:57:53;;;;;;;75.40;39.20;;;;;;;3.76;94.42;101951.40;103373;1305;63330;-75
2022/12/01 03:00:19;;;;;;;77.50;39.50;;;;;;;3.72;94.55;101951.30;103868;1294;62559;-76
2022/12/01 03:03:30;;;;;;;76.90;39.60;;;;;;;3.67;94.35;101953.53;103846;1292;62006;-76
2022/12/01 03:06:22;;;;;;;73.70;37.60;;;;;;;3.64;94.42;101952.19;104388;1292;70963;-75
2022/12/01 03:09:07;;;;;;;81.60;40.60;;;;;;;3.60;94.38;101956.09;103897;1294;72004;-74
2022/12/01 03:11:50;;;;;;;77.70;38.10;;;;;;;3.57;94.62;101952.29;104118;1295;62118;-74
2022/12/01 03:14:32;;;;;;;82.70;40.10;;;;;;;3.54;94.57;101952.83;104149;1301;59804;-75
2022/12/01 03:17:06;;;;;;;85.70;40.80;;;;;;;3.51;94.90;101954.58;103664;1295;73345;-75
2022/12/01 03:19:48;;;;;;;79.30;39.50;;;;;;;3.50;94.86;101953.27;103981;1295;70869;-76
2022/12/01 03:22:41;;;;;;;83.40;39.80;;;;;;;3.49;94.84;101953.33;103962;1294;71387;-76
2022/12/01 03:25:11;;;;;;;80.10;40.00;;;;;;;3.50;94.94;101953.27;104633;1295;62098;-76
2022/12/01 03:27:42;;;;;;;84.60;41.20;;;;;;;3.51;95.31;101958.96;103633;1288;61981;-75
2022/12/01 03:30:32;;;;;;;82.50;41.20;;;;;;;3.52;95.18;101958.50;104325;1298;77957;-75
2022/12/01 03:33:12;;;;;;;83.40;40.80;;;;;;;3.53;95.14;101961.47;103587;1297;69925;-75
2022/12/01 03:35:49;;;;;;;82.60;40.40;;;;;;;3.52;95.10;101957.63;103764;1302;73299;-75
2022/12/01 03:38:27;;;;;;;84.90;39.90;;;;;;;3.50;94.96;101959.58;103803;1295;62109;-76
2022/12/01 03:41:06;;;;;;;81.90;39.30;;;;;;;3.44;94.93;101963.04;103609;1294;61252;-75
2022/12/01 03:43:37;;;;;;;82.00;39.30;;;;;;;3.42;95.07;101966.34;104622;1293;74924;-75
2022/12/01 03:46:23;;;;;;;81.80;39.80;;;;;;;3.39;95.05;101964.27;103810;1302;71373;-75
2022/12/01 03:48:53;;;;;;;75.70;37.00;;;;;;;3.37;94.91;101962.80;104103;1302;72113;-75
2022/12/01 03:51:35;;;;;;;76.50;38.10;;;;;;;3.34;94.93;101965.46;104144;1302;62051;-75
2022/12/01 03:54:36;;;;;;;76.10;37.60;;;;;;;3.31;95.08;101964.59;104020;1298;60260;-75
2022/12/01 03:57:07;;;;;;;79.00;39.20;;;;;;;3.28;94.89;101963.73;103525;1298;75232;-76
2022/12/01 03:59:35;;;;;;;82.60;38.80;;;;;;;3.25;94.98;101959.00;103526;1294;71224;-75
2022/12/01 04:02:04;;;;;;;86.50;39.60;;;;;;;3.23;95.04;101962.95;104216;1291;73361;-76
2022/12/01 04:04:30;;;;;;;82.50;39.90;;;;;;;3.21;95.07;101964.30;104397;1301;62074;-75
2022/12/01 04:06:57;;;;;;;81.60;39.00;;;;;;;3.19;95.17;101959.90;104035;1295;62194;-76
2022/12/01 04:09:23;;;;;;;82.90;39.10;;;;;;;3.16;95.14;101961.31;103713;1302;61853;-76
2022/12/01 04:14:35;;;;;;;78.20;38.60;;;;;;;3.16;95.09;101963.58;103793;1301;71878;-75
2022/12/01 04:17:01;;;;;;;80.80;38.90;;;;;;;3.16;95.05;101961.84;103601;1294;62118;-75
2022/12/01 04:19:28;;;;;;;83.30;38.40;;;;;;;3.15;95.16;101963.31;104420;1296;61905;-75
2022/12/01 04:21:54;;;;;;;79.10;38.40;;;;;;;3.12;95.01;101964.69;104168;1301;62192;-75
2022/12/01 04:24:21;;;;;;;76.80;37.20;;;;;;;3.10;94.99;101966.26;104110;1294;63672;-75
2022/12/01 04:26:47;;;;;;;75.00;36.70;;;;;;;3.08;95.01;101966.39;103750;1293;63420;-74
2022/12/01 04:29:14;;;;;;;76.50;35.90;;;;;;;3.06;95.15;101968.94;104065;1294;62344;-74
2022/12/01 04:31:40;;;;;;;77.90;37.40;;;;;;;3.04;94.96;101973.91;104028;1294;62183;-74
2022/12/01 04:34:09;;;;;;;70.00;34.60;;;;;;;3.05;95.00;101972.64;103828;1295;60332;-75
2022/12/01 04:36:35;;;;;;;62.60;32.10;;;;;;;3.07;95.19;101973.76;104512;1287;70851;-75
2022/12/01 04:39:02;;;;;;;60.30;32.00;;;;;;;3.05;94.73;101971.76;104225;1294;62173;-74
2022/12/01 04:41:29;;;;;;;69.70;32.90;;;;;;;3.03;94.45;101975.23;103141;1294;62180;-75
2022/12/01 04:43:56;;;;;;;68.80;33.30;;;;;;;3.02;94.50;101969.56;102718;1301;62010;-76
2022/12/01 04:46:23;;;;;;;71.10;33.30;;;;;;;2.99;94.40;101970.39;103746;1295;62006;-75
2022/12/01 04:48:50;;;;;;;71.40;35.00;;;;;;;2.98;94.66;101968.52;103046;1303;69886;-75
2022/12/01 04:51:17;;;;;;;75.30;34.20;;;;;;;2.98;94.98;101973.11;103022;1304;72427;-76
2022/12/01 04:53:43;;;;;;;67.80;33.70;;;;;;;2.97;94.65;101967.58;103164;1294;62139;-75
2022/12/01 04:56:10;;;;;;;73.60;34.10;;;;;;;2.96;94.79;101971.68;103746;1297;60152;-74
2022/12/01 04:58:37;;;;;;;72.90;35.20;;;;;;;2.92;94.37;101968.53;103187;1300;60983;-75
2022/12/01 05:01:09;;;;;;;73.10;35.10;;;;;;;2.91;94.54;101967.77;103762;1302;71813;-76
2022/12/01 05:03:38;;;;;;;76.00;37.00;;;;;;;2.91;94.65;101971.63;103747;1301;71041;-75
2022/12/01 05:06:14;;;;;;;77.30;36.20;;;;;;;2.91;94.70;101972.31;103232;1301;62654;-75
2022/12/01 05:08:40;;;;;;;75.20;35.80;;;;;;;2.91;94.82;101977.71;103603;1301;64990;-76
2022/12/01 05:11:11;;;;;;;77.60;36.20;;;;;;;2.90;94.97;101977.95;102946;1292;73792;-75
2022/12/01 05:13:39;;;;;;;73.00;34.30;;;;;;;2.88;94.58;101980.34;103005;1294;69580;-75
2022/12/01 05:16:07;;;;;;;73.90;35.20;;;;;;;2.88;94.97;101983.52;104007;1289;70114;-76
2022/12/01 05:18:34;;;;;;;74.20;34.60;;;;;;;2.85;94.46;101985.56;103940;1292;62167;-75
2022/12/01 05:21:03;;;;;;;69.00;32.00;;;;;;;2.82;94.61;101988.19;103477;1297;62106;-75
2022/12/01 05:23:31;;;;;;;71.90;32.30;;;;;;;2.81;94.65;101988.98;103047;1300;75013;-76
2022/12/01 05:25:59;;;;;;;66.90;32.20;;;;;;;2.79;94.50;101994.17;102966;1301;69705;-74
2022/12/01 05:28:26;;;;;;;72.50;33.10;;;;;;;2.76;94.41;101993.48;103253;1294;72854;-75
2022/12/01 05:30:53;;;;;;;67.40;31.40;;;;;;;2.74;94.39;101998.50;103342;1295;62076;-75
2022/12/01 05:33:21;;;;;;;67.90;31.90;;;;;;;2.71;94.41;101994.14;103595;1294;62102;-75
2022/12/01 05:35:49;;;;;;;66.20;31.10;;;;;;;2.67;94.24;102002.40;103691;1294;74466;-74
2022/12/01 05:38:16;;;;;;;67.80;31.40;;;;;;;2.66;94.56;102002.98;103107;1298;70615;-74
2022/12/01 05:40:52;;;;;;;66.70;30.90;;;;;;;2.66;94.57;102008.73;103865;1297;70393;-75
2022/12/01 05:43:20;;;;;;;71.30;32.50;;;;;;;2.63;94.31;102006.47;102968;1303;62278;-75
2022/12/01 05:45:54;;;;;;;71.30;32.20;;;;;;;2.61;94.18;102007.31;102830;1297;62265;-75
2022/12/01 05:48:21;;;;;;;70.60;32.20;;;;;;;2.58;94.51;102009.59;104078;1293;73805;-75
2022/12/01 05:50:47;;;;;;;69.70;31.00;;;;;;;2.56;94.33;102008.09;103679;1295;62501;-75
2022/12/01 05:53:14;;;;;;;68.10;30.50;;;;;;;2.55;94.70;102009.92;103237;1295;62767;-74
2022/12/01 05:55:41;;;;;;;64.90;30.40;;;;;;;2.56;94.44;102010.92;103270;1294;62124;-76
2022/12/01 05:58:08;;;;;;;70.60;31.80;;;;;;;2.54;94.38;102008.92;103736;1301;62321;-76
2022/12/01 06:00:36;;;;;;;69.20;31.00;;;;;;;2.55;94.40;102014.82;103796;1294;75202;-76
2022/12/01 06:03:11;;;;;;;71.00;31.40;;;;;;;2.56;94.49;102011.07;102776;1302;69580;-75
2022/12/01 06:05:37;;;;;;;67.40;30.30;;;;;;;2.56;94.41;102014.92;104263;1295;62025;-76
2022/12/01 06:08:04;;;;;;;68.30;30.00;;;;;;;2.54;94.48;102019.91;103495;1301;62095;-76
2022/12/01 06:10:30;;;;;;;63.90;29.10;;;;;;;2.54;94.30;102022.20;103728;1301;62260;-76
2022/12/01 06:12:57;;;;;;;66.40;29.80;;;;;;;2.55;94.15;102025.83;103114;1302;62019;-76
2022/12/01 06:15:23;;;;;;;63.80;28.40;;;;;;;2.55;94.25;102028.58;103660;1294;59881;-77
2022/12/01 06:17:50;;;;;;;62.40;29.30;;;;;;;2.55;94.04;102031.25;103702;1301;62192;-76
2022/12/01 06:20:16;;;;;;;64.40;28.70;;;;;;;2.54;94.01;102032.52;103424;1301;62169;-76
2022/12/01 06:22:43;;;;;;;66.10;28.20;;;;;;;2.54;94.17;102033.92;103531;1301;62280;-76
2022/12/01 06:25:09;;;;;;;60.30;27.80;;;;;;;2.53;94.23;102032.03;103657;1296;62274;-76
2022/12/01 06:27:36;;;;;;;58.90;27.30;;;;;;;2.52;94.00;102031.05;103491;1301;59923;-75
2022/12/01 06:30:03;;;;;;;65.20;29.40;;;;;;;2.49;93.62;102034.91;102873;1301;62108;-75
2022/12/01 06:32:30;;;;;;;60.30;27.70;;;;;;;2.47;93.89;102036.59;103053;1294;250596;-76
2022/12/01 06:34:56;;;;;;;61.60;27.40;;;;;;;2.44;93.63;102041.59;103583;1294;62623;-76
2022/12/01 06:37:23;;;;;;;60.60;27.00;;;;;;;2.44;93.67;102041.11;103539;1293;62131;-75
2022/12/01 06:39:49;;;;;;;58.80;27.10;;;;;;;2.45;93.56;102041.23;102775;1294;62381;-76
2022/12/01 06:42:16;;;;;;;61.70;28.40;;;;;;;2.44;93.61;102038.15;103301;1286;72756;-76
2022/12/01 06:44:43;;;;;;;61.50;26.30;;;;;;;2.44;93.41;102038.48;103534;1295;59922;-76
2022/12/01 06:47:09;;;;;;;59.00;27.60;;;;;;;2.43;93.47;102039.77;103749;1301;62077;-75
2022/12/01 06:49:36;;;;;;;65.50;28.70;;;;;;;2.41;93.49;102046.34;103081;1294;62194;-74
2022/12/01 06:52:04;;;;;;;63.90;29.40;;;;;;;2.39;93.63;102050.84;103068;1297;74108;-74
2022/12/01 06:54:30;;;;;;;68.80;29.60;;;;;;;2.39;93.61;102054.83;104264;1292;72594;-75
2022/12/01 06:56:57;;;;;;;65.00;29.40;;;;;;;2.39;93.66;102053.05;103124;1294;62208;-74
2022/12/01 06:59:27;;;;;;;68.20;30.90;;;;;;;2.40;93.82;102054.61;103150;1292;62145;-72
2022/12/01 07:01:55;;;;;;;67.80;29.40;;;;;;;2.43;94.03;102052.86;104344;1293;76508;-72
2022/12/01 07:04:21;;;;;;;66.60;29.20;;;;;;;2.48;94.11;102053.14;103679;1294;69960;-72
2022/12/01 07:06:48;;;;;;;67.70;30.20;;;;;;;2.51;93.99;102052.42;103714;1288;61948;-72
2022/12/01 07:09:14;;;;;;;68.10;30.30;;;;;;;2.54;94.07;102059.42;102971;1294;62166;-72
2022/12/01 07:11:40;;;;;;;69.10;31.00;;;;;;;2.55;93.56;102057.44;103047;1301;63351;-73
2022/12/01 07:14:18;;;;;;;69.20;31.30;;;;;;;2.59;93.97;102058.77;104156;1295;62613;-73
2022/12/01 07:16:45;;;;;;;67.60;30.70;;;;;;;2.64;93.95;102053.73;103141;1295;71517;-73
2022/12/01 07:19:11;;;;;;;65.10;30.40;;;;;;;2.66;93.84;102051.88;102936;1295;62195;-73
2022/12/01 07:21:38;;;;;;;74.90;34.20;;;;;;;2.67;93.52;102054.98;103740;1285;60038;-72
2022/12/01 07:24:04;;;;;;;78.80;34.40;;;;;;;2.68;93.61;102053.54;104286;1292;62189;-72
2022/12/01 07:26:31;;;;;;;78.80;33.60;;;;;;;2.69;93.63;102055.88;103567;1294;76329;-72
2022/12/01 07:28:57;;;;;;;72.00;31.70;;;;;;;2.72;93.61;102055.59;103115;1301;62271;-72
2022/12/01 07:31:24;;;;;;;63.70;28.90;;;;;;;2.73;93.22;102053.75;103802;1288;60737;-72
2022/12/01 07:33:51;;;;;;;60.50;27.90;;;;;;;2.71;92.95;102056.85;103758;1294;62101;-72
2022/12/01 07:36:17;;;;;;;60.30;28.30;;;;;;;2.70;92.94;102055.66;103259;1294;62090;-74
2022/12/01 07:38:44;;;;;;;63.10;28.80;;;;;;;2.70;92.59;102059.50;103350;1295;62133;-73
2022/12/01 07:41:13;;;;;;;59.90;26.20;;;;;;;2.69;92.87;102062.20;103392;1292;62083;-73
2022/12/01 07:43:40;;;;;;;57.40;25.70;;;;;;;2.69;92.89;102067.42;103258;1302;72438;-73
2022/12/01 07:46:18;;;;;;;61.10;28.70;;;;;;;2.69;92.69;102064.48;103309;1302;62170;-73
2022/12/01 07:48:50;;;;;;;66.30;29.40;;;;;;;2.68;92.46;102063.81;103235;1294;62090;-72
2022/12/01 07:51:17;;;;;;;67.70;30.80;;;;;;;2.68;92.56;102068.03;103717;1284;74259;-73
2022/12/01 07:53:45;;;;;;;67.50;30.60;;;;;;;2.69;92.23;102075.30;103251;1295;69926;-74
2022/12/01 07:56:12;;;;;;;70.30;30.10;;;;;;;2.71;92.74;102072.54;103468;1294;71502;-74
2022/12/01 07:58:39;;;;;;;70.30;31.60;;;;;;;2.73;92.68;102075.73;102896;1301;62096;-73
2022/12/01 08:01:11;;;;;;;71.30;31.60;;;;;;;2.76;92.88;102079.27;103547;1294;62210;-73
2022/12/01 08:03:38;;;;;;;72.30;31.30;;;;;;;2.80;92.86;102081.11;103098;1301;74087;-73
2022/12/01 08:06:06;;;;;;;71.80;31.40;;;;;;;2.81;92.58;102081.35;103122;1296;68785;-73
2022/12/01 08:08:35;;;;;;;65.10;28.40;;;;;;;2.80;92.44;102077.91;103947;1294;71277;-73
2022/12/01 08:11:04;;;;;;;69.30;30.50;;;;;;;2.77;92.09;102081.25;103483;1297;62091;-73
2022/12/01 08:13:31;;;;;;;65.60;28.30;;;;;;;2.78;92.27;102083.66;103779;1292;62203;-72
2022/12/01 08:15:58;;;;;;;63.70;29.60;;;;;;;2.76;91.97;102088.35;102974;1301;75241;-73
2022/12/01 08:18:24;;;;;;;68.20;29.20;;;;;;;2.75;92.15;102090.48;103367;1293;62022;-73
2022/12/01 08:20:56;;;;;;;60.90;28.30;;;;;;;2.76;91.95;102093.75;103661;1290;62205;-73
2022/12/01 08:23:23;;;;;;;57.70;26.50;;;;;;;2.75;92.06;102094.65;103028;1301;62188;-73
2022/12/01 08:25:51;;;;;;;63.40;28.30;;;;;;;2.74;91.75;102100.70;103016;1301;62184;-73
2022/12/01 08:28:18;;;;;;;64.90;27.60;;;;;;;2.73;91.81;102103.20;104238;1300;74357;-74
2022/12/01 08:30:45;;;;;;;59.10;25.80;;;;;;;2.72;91.66;102100.80;103789;1291;71129;-74
2022/12/01 08:33:12;;;;;;;60.60;26.90;;;;;;;2.70;91.61;102103.71;102973;1292;72552;-74
2022/12/01 08:35:38;;;;;;;62.30;26.90;;;;;;;2.68;91.36;102106.24;102893;1286;62128;-74
2022/12/01 08:38:05;;;;;;;59.30;24.30;;;;;;;2.67;91.08;102107.17;103533;1288;62392;-73
2022/12/01 08:40:31;;;;;;;60.20;26.50;;;;;;;2.63;91.19;102108.25;103942;1300;59701;-74
2022/12/01 08:42:58;;;;;;;57.60;25.00;;;;;;;2.63;91.28;102115.25;103224;1294;62207;-72
2022/12/01 08:45:24;;;;;;;57.50;25.30;;;;;;;2.61;90.94;102112.58;103184;1301;62191;-72
2022/12/01 08:47:52;;;;;;;57.70;25.20;;;;;;;2.59;91.16;102115.86;103986;1286;61884;-72
2022/12/01 08:50:19;;;;;;;55.20;24.80;;;;;;;2.58;91.22;102118.52;103866;1302;62708;-72
2022/12/01 08:52:45;;;;;;;57.50;26.40;;;;;;;2.56;91.05;102117.76;103134;1301;62160;-72
2022/12/01 08:55:12;;;;;;;56.30;25.30;;;;;;;2.54;91.03;102118.40;103232;1299;62195;-71
2022/12/01 08:57:38;;;;;;;52.80;24.20;;;;;;;2.55;91.00;102117.82;103898;1294;62193;-72
2022/12/01 09:00:07;;;;;;;59.20;25.50;;;;;;;2.58;91.48;102117.49;103659;1294;62231;-72
2022/12/01 09:02:34;;;;;;;56.30;25.30;;;;;;;2.58;91.25;102121.68;103502;1293;62986;-71
2022/12/01 09:05:00;;;;;;;58.40;25.20;;;;;;;2.58;91.07;102119.91;103729;1295;62291;-73
2022/12/01 09:07:27;;;;;;;57.40;25.30;;;;;;;2.57;90.81;102122.79;103673;1301;62198;-72
2022/12/01 09:09:53;;;;;;;62.00;27.10;;;;;;;2.55;90.94;102121.85;103955;1292;71310;-73
2022/12/01 09:12:20;;;;;;;60.90;26.90;;;;;;;2.56;90.87;102126.84;103545;1294;61976;-73
2022/12/01 09:14:48;;;;;;;65.90;27.40;;;;;;;2.59;91.04;102128.97;103186;1301;62005;-73
2022/12/01 09:17:16;;;;;;;63.70;27.30;;;;;;;2.60;91.19;102133.29;103823;1294;73900;-72
2022/12/01 09:19:43;;;;;;;65.70;27.70;;;;;;;2.62;91.41;102134.52;103489;1297;70935;-73
2022/12/01 09:22:10;;;;;;;65.40;27.20;;;;;;;2.68;91.14;102131.43;103738;1294;71145;-72
2022/12/01 09:24:37;;;;;;;71.70;28.70;;;;;;;2.70;91.06;102134.81;103170;1300;62105;-72
2022/12/01 09:27:03;;;;;;;62.90;25.90;;;;;;;2.72;91.20;102135.05;103430;1294;62163;-73
2022/12/01 09:29:31;;;;;;;60.80;27.00;;;;;;;2.72;91.12;102139.21;103515;1300;74268;-72
2022/12/01 09:31:59;;;;;;;67.10;27.90;;;;;;;2.73;90.94;102134.80;103523;1302;70845;-72
2022/12/01 09:34:26;;;;;;;68.30;28.10;;;;;;;2.75;90.87;102132.08;103180;1299;70139;-73
2022/12/01 09:36:57;;;;;;;72.20;29.50;;;;;;;2.76;90.97;102128.49;103550;1300;62147;-73
2022/12/01 09:39:24;;;;;;;66.50;27.60;;;;;;;2.82;91.36;102130.08;102911;1301;62130;-73
2022/12/01 09:42:12;;;;;;;72.90;29.30;;;;;;;2.88;91.33;102124.52;103418;1300;74280;-72
2022/12/01 09:44:52;;;;;;;69.30;28.80;;;;;;;2.92;91.12;102114.29;103594;1301;69016;-73
2022/12/01 09:47:30;;;;;;;68.40;28.10;;;;;;;2.92;90.68;102106.42;103646;1300;71848;-72
2022/12/01 09:50:12;;;;;;;76.50;29.30;;;;;;;2.93;90.54;102108.86;103165;1301;62201;-72
2022/12/01 09:52:50;;;;;;;67.60;27.90;;;;;;;2.97;90.87;102112.30;103227;1297;62164;-73
2022/12/01 09:55:18;;;;;;;67.30;28.00;;;;;;;2.99;90.65;102110.92;103468;1301;75321;-73
2022/12/01 09:57:51;;;;;;;72.30;27.50;;;;;;;3.01;90.59;102109.25;103284;1301;69930;-73
2022/12/01 10:00:20;;;;;;;65.40;27.00;;;;;;;3.01;90.58;102106.79;103646;1300;71424;-73
2022/12/01 10:02:59;;;;;;;57.60;25.10;;;;;;;3.06;90.78;102108.04;102989;1294;62033;-73
2022/12/01 10:05:37;;;;;;;61.60;25.70;;;;;;;3.12;90.49;102110.67;103645;1297;59867;-73
2022/12/01 10:08:28;;;;;;;52.40;23.30;;;;;;;3.16;89.95;102105.89;102969;1286;79200;-73
2022/12/01 10:11:03;;;;;;;48.10;22.40;;;;;;;3.16;89.44;102106.77;103656;1301;70923;-73
2022/12/01 10:13:32;;;;;;;46.10;20.60;;;;;;;3.22;89.84;102104.30;105254;1294;72111;-73
2022/12/01 10:16:41;;;;;;;46.80;22.10;;;;;;;3.29;89.65;102103.19;104929;1301;61147;-73
2022/12/01 10:19:18;;;;;;;44.60;21.10;;;;;;;3.35;89.10;102104.21;104673;1294;61976;-73
2022/12/01 10:22:08;;;;;;;48.10;22.10;;;;;;;3.36;88.66;102103.47;103958;1291;74512;-72
2022/12/01 10:24:49;;;;;;;48.30;23.40;;;;;;;3.35;88.25;102096.00;103893;1302;70581;-73
2022/12/01 10:27:54;;;;;;;48.40;23.80;;;;;;;3.38;88.39;102094.63;103094;1294;71013;-73
2022/12/01 10:30:22;;;;;;;60.50;26.60;;;;;;;3.44;88.35;102094.08;103536;1300;62652;-72
2022/12/01 10:32:59;;;;;;;58.10;26.00;;;;;;;3.46;88.26;102094.59;104124;1288;62061;-72
2022/12/01 10:35:30;;;;;;;59.80;27.20;;;;;;;3.47;88.17;102089.17;103301;1294;74065;-71
2022/12/01 10:38:05;;;;;;;62.20;27.40;;;;;;;3.47;87.91;102093.85;103397;1301;69689;-73
2022/12/01 10:40:34;;;;;;;64.50;26.80;;;;;;;3.50;88.01;102092.85;103433;1292;72628;-71
2022/12/01 10:43:02;;;;;;;61.00;26.70;;;;;;;3.55;88.35;102092.48;103515;1294;62110;-72
2022/12/01 10:45:34;;;;;;;55.10;25.00;;;;;;;3.59;88.04;102089.80;103223;1302;62114;-72
2022/12/01 10:48:16;;;;;;;61.70;27.20;;;;;;;3.61;87.95;102089.15;103531;1292;75378;-73
2022/12/01 10:50:48;;;;;;;58.40;25.70;;;;;;;3.65;87.84;102090.15;103639;1297;68567;-72
2022/12/01 10:53:33;;;;;;;63.40;26.60;;;;;;;3.65;87.43;102087.65;103411;1294;71656;-72
2022/12/01 10:56:02;;;;;;;62.00;27.70;;;;;;;3.65;87.31;102086.80;103117;1301;63044;-73
2022/12/01 10:58:32;;;;;;;60.90;27.10;;;;;;;3.67;87.74;102086.30;104022;1301;63207;-73
2022/12/01 11:01:04;;;;;;;56.30;25.20;;;;;;;3.73;87.56;102084.76;103561;1294;76172;-72
2022/12/01 11:03:33;;;;;;;53.20;25.70;;;;;;;3.80;87.59;102085.84;103397;1294;70431;-73
2022/12/01 11:06:02;;;;;;;59.10;25.30;;;;;;;3.88;87.57;102083.45;103591;1295;72606;-73
2022/12/01 11:08:39;;;;;;;59.80;25.20;;;;;;;3.92;87.28;102082.69;104678;1294;62122;-72
2022/12/01 11:11:24;;;;;;;59.90;26.70;;;;;;;3.93;86.76;102083.15;103381;1301;60678;-72
2022/12/01 11:13:50;;;;;;;60.10;27.00;;;;;;;3.91;86.42;102080.81;103698;1301;74339;-72
2022/12/01 11:16:39;;;;;;;57.40;25.70;;;;;;;3.88;86.24;102075.60;103539;1300;69859;-73
2022/12/01 11:19:31;;;;;;;68.00;27.90;;;;;;;3.85;86.35;102074.73;103660;1291;72442;-73
2022/12/01 11:22:17;;;;;;;59.80;26.50;;;;;;;3.82;86.48;102069.48;103096;1302;62261;-73
2022/12/01 11:24:56;;;;;;;64.50;26.90;;;;;;;3.79;86.30;102069.84;103767;1288;62100;-72
2022/12/01 11:27:25;;;;;;;62.20;27.10;;;;;;;3.75;86.37;102063.27;103628;1294;75213;-73
2022/12/01 11:29:56;;;;;;;71.80;29.80;;;;;;;3.70;86.57;102070.06;103992;1295;69648;-72
2022/12/01 11:32:25;;;;;;;70.10;28.50;;;;;;;3.67;86.81;102070.73;103531;1301;72911;-72